Airfield :
LOGIN :

Register | Disclaimer

   EN    FR    IT 

 










Legend :    VFR   Marginal VFR   IFR   Intensive IFR   Very Intensive IFR
Visi :
Ceiling :
>= 8 km
>= 3000ft
5 to 8 km
1000 to 3000 ft
1500m to 5 km
500 to 1000 ft
800 to 1500m
200 to 500 ft
< 800m
< 200 ft
Symbols :   Thunderstorms  Fog  Heavy snow  Heavy precipitations  Wind > 20 kt
SIGMETs :     Misc.  Thunderstorms  Icing  Turbulence  Mountain Waves  Volcanic Ashes






- Airport Elevation : 75 ft
- IATA code : YEO


EGDY - RNAS Yeovilton

CURRENT METAR :
  • 300920Z 19008KT 9999 FEW015 BKN140 14/12 Q1007 NOSIG RMK BLU BLU

EXPIRED METARs :
  • 300850Z 20004KT 9999 FEW014 BKN140 12/12 Q1008 NOSIG RMK BLU BLU
  • 300820Z 21001KT 9999 FEW014 BKN160 10/09 Q1008 NOSIG RMK BLU BLU
  • 300750Z 06001KT 9999 MIFG FEW000 BKN200 08/08 Q1008 NOSIG RMK BLU BLU
  • 300720Z 10001KT 9999 MIFG FEW000 BKN200 07/07 Q1009 NOSIG RMK BLU BLU

TAF TAF EGDY
Valid from the 30 at 07:00 until the 30 at 16:00 UTC


300603Z 3007/3016 20003KT 7000 BR FEW000
TEMPO 3007/3009 0500 FG SCT000
BECMG 3007/3009 21010KT 9999 NSW FEW022
BECMG 3010/3012 21015G25KT BKN022
TEMPO 3011/3016 21020G30KT 5000 RA SCT012



MET'MAP, your aeronautical weather chart ! - Copyright ORBIFLY December 2007 - Disclaimer

ORBIFLY MET'MAP TEAM :

Programming & Development : Alexandra Zaïnal
Original concept : Baudouin d'Aumeries
Technical & hardware support : Manuel Goepfert
Assistance : Marc-Olivier Méhu




SOURCES & CREDITS :

   NOAA